Time;durP1;ratioP1;P1;durP2;ratioP2;P2;SDS_P1;SDS_P2;PMS_P1;PMS_P2;Temp;Humidity;BMP_temperature;BMP_pressure;BME280_temperature;BME280_humidity;BME280_pressure;Samples;Min_cycle;Max_cycle;Signal;HPM_P1;HPM_P2
2023/05/13 00:01:37;;;;;;;12.40;3.50;;;;;;;19.82;58.16;101376.00;5047913;28;20025;-45
2023/05/13 00:04:07;;;;;;;16.40;3.90;;;;;;;19.19;58.62;101383.59;5051336;28;20033;-45
2023/05/13 00:06:34;;;;;;;15.50;3.67;;;;;;;18.71;60.25;101379.59;5051287;28;20025;-46
2023/05/13 00:09:01;;;;;;;13.20;3.95;;;;;;;18.88;60.47;101374.19;5033510;28;20033;-45
2023/05/13 00:11:27;;;;;;;14.93;4.60;;;;;;;18.98;60.09;101379.75;5038469;28;20029;-45
2023/05/13 00:13:53;;;;;;;18.45;4.80;;;;;;;18.57;60.71;101368.25;5032574;28;20037;-48
2023/05/13 00:16:22;;;;;;;13.02;3.83;;;;;;;18.65;61.25;101370.53;5031070;28;20022;-48
2023/05/13 00:18:50;;;;;;;19.58;3.97;;;;;;;18.63;60.16;101372.69;5030681;28;20502;-49
2023/05/13 00:21:16;;;;;;;18.63;3.63;;;;;;;18.76;60.09;101373.44;5031796;28;20108;-45
2023/05/13 00:23:42;;;;;;;10.82;3.50;;;;;;;18.53;60.65;101371.69;5046005;28;20073;-46
2023/05/13 00:26:09;;;;;;;15.13;3.78;;;;;;;18.30;61.92;101376.19;5028947;28;20074;-48
2023/05/13 00:28:35;;;;;;;13.90;3.58;;;;;;;18.33;61.57;101373.00;5042782;28;20103;-47
2023/05/13 00:31:02;;;;;;;13.15;4.07;;;;;;;18.15;61.72;101376.72;5050989;28;20032;-50
2023/05/13 00:33:29;;;;;;;15.30;4.38;;;;;;;18.04;61.98;101368.66;5035257;28;20109;-48
2023/05/13 00:35:55;;;;;;;13.25;4.20;;;;;;;18.09;61.48;101366.88;5042167;28;20114;-47
2023/05/13 00:38:21;;;;;;;12.15;4.43;;;;;;;18.36;61.25;101371.69;5044968;28;20025;-47
2023/05/13 00:40:48;;;;;;;9.60;3.70;;;;;;;18.06;61.52;101374.69;5042074;28;20024;-50
2023/05/13 00:43:16;;;;;;;19.90;4.88;;;;;;;17.88;62.99;101373.81;5042552;28;20025;-48
2023/05/13 00:45:42;;;;;;;15.38;3.33;;;;;;;17.82;63.00;101363.97;5040311;28;20028;-46
2023/05/13 00:48:08;;;;;;;17.38;4.80;;;;;;;17.76;64.42;101369.50;5047143;28;20025;-50
2023/05/13 00:50:35;;;;;;;11.25;4.50;;;;;;;17.71;64.62;101367.47;5047909;28;20084;-46
2023/05/13 00:53:03;;;;;;;17.25;4.65;;;;;;;17.68;64.56;101376.91;5033989;28;20025;-46
2023/05/13 00:55:29;;;;;;;13.05;4.32;;;;;;;17.49;64.99;101363.75;5053905;28;20021;-46
2023/05/13 00:57:56;;;;;;;13.70;4.57;;;;;;;17.45;64.85;101365.31;5053856;28;20029;-47
2023/05/13 01:00:22;;;;;;;11.77;4.38;;;;;;;17.59;64.53;101362.09;5050926;28;20124;-48
2023/05/13 01:03:07;;;;;;;17.90;4.68;;;;;;;17.34;65.61;101378.63;5033937;28;20489;-46
2023/05/13 01:05:39;;;;;;;19.02;4.63;;;;;;;17.14;66.54;101356.53;5034142;28;20030;-47
2023/05/13 01:08:39;;;;;;;12.60;3.97;;;;;;;17.22;65.80;101364.31;5045351;28;20041;-45
2023/05/13 01:11:16;;;;;;;13.52;3.85;;;;;;;17.00;66.62;101355.16;5038869;28;20033;-49
2023/05/13 01:13:46;;;;;;;12.98;4.28;;;;;;;17.18;66.54;101365.00;5052715;28;20033;-48
2023/05/13 01:16:19;;;;;;;14.48;3.78;;;;;;;17.06;66.67;101352.31;5053846;28;20033;-47
2023/05/13 01:18:52;;;;;;;13.50;4.63;;;;;;;16.82;66.71;101345.25;5046513;28;20067;-46
2023/05/13 01:21:26;;;;;;;16.95;4.70;;;;;;;16.69;67.09;101343.59;5053652;28;20347;-44
2023/05/13 01:23:52;;;;;;;17.58;5.75;;;;;;;16.89;66.90;101348.69;5053517;28;20063;-46
2023/05/13 01:26:20;;;;;;;18.85;5.00;;;;;;;16.68;67.25;101346.53;5053041;28;20102;-43
2023/05/13 01:28:46;;;;;;;17.30;5.10;;;;;;;16.68;67.24;101349.22;5042347;28;20036;-44
2023/05/13 01:31:14;;;;;;;14.88;4.38;;;;;;;16.61;69.57;101349.34;5041576;28;20544;-45
2023/05/13 01:33:42;;;;;;;14.77;4.95;;;;;;;16.45;67.99;101350.03;5046626;28;20037;-46
2023/05/13 01:36:09;;;;;;;15.90;5.28;;;;;;;16.43;69.07;101349.41;5035353;28;20032;-44
2023/05/13 01:38:37;;;;;;;16.42;5.05;;;;;;;16.13;69.05;101352.19;5041014;28;20036;-45
2023/05/13 01:41:03;;;;;;;15.70;4.88;;;;;;;16.21;69.43;101335.63;5072009;23;20055;-46
2023/05/13 01:43:29;;;;;;;19.33;5.03;;;;;;;16.29;69.26;101340.72;5093848;28;20408;-45
2023/05/13 01:45:59;;;;;;;11.43;4.35;;;;;;;16.44;68.42;101338.41;5068940;28;20040;-41
2023/05/13 01:48:25;;;;;;;12.82;4.47;;;;;;;16.12;69.72;101343.25;5068211;28;20031;-41
2023/05/13 01:50:52;;;;;;;17.50;4.70;;;;;;;16.17;69.52;101334.47;5055899;28;20487;-40
2023/05/13 01:53:19;;;;;;;18.88;4.95;;;;;;;16.01;69.71;101334.06;5056792;28;20021;-41
2023/05/13 01:55:45;;;;;;;18.35;4.95;;;;;;;16.09;69.76;101331.03;5072971;28;20500;-40
2023/05/13 01:58:11;;;;;;;22.25;5.13;;;;;;;15.89;70.15;101335.91;5055347;28;20104;-41
2023/05/13 02:00:37;;;;;;;14.63;4.68;;;;;;;16.06;69.87;101327.97;5070651;28;20024;-40
2023/05/13 02:03:03;;;;;;;12.30;4.32;;;;;;;16.24;69.42;101324.38;5071787;28;20026;-41
2023/05/13 02:05:31;;;;;;;12.13;4.82;;;;;;;16.53;68.36;101334.28;5071206;28;20037;-42
2023/05/13 02:07:58;;;;;;;13.38;4.63;;;;;;;16.37;68.58;101326.84;5072283;28;20455;-41
2023/05/13 02:10:24;;;;;;;17.42;4.30;;;;;;;16.30;68.07;101342.34;5055101;28;20465;-41
2023/05/13 02:12:50;;;;;;;13.98;4.57;;;;;;;16.30;67.87;101339.66;5053271;28;20120;-43
2023/05/13 02:15:17;;;;;;;15.88;4.75;;;;;;;16.46;68.37;101341.69;5068549;28;20024;-44
2023/05/13 02:17:43;;;;;;;14.05;4.28;;;;;;;16.20;67.95;101331.28;5072239;28;20038;-44
2023/05/13 02:20:10;;;;;;;14.27;3.88;;;;;;;16.72;66.70;101334.22;5072574;28;20028;-42
2023/05/13 02:22:36;;;;;;;12.85;4.00;;;;;;;16.85;65.94;101331.28;5072366;28;20112;-41
2023/05/13 02:25:03;;;;;;;11.88;4.00;;;;;;;16.92;65.16;101337.38;5070103;28;20546;-42
2023/05/13 02:27:29;;;;;;;13.32;4.00;;;;;;;16.94;65.17;101338.00;5071761;28;20055;-41
2023/05/13 02:29:56;;;;;;;11.43;4.03;;;;;;;16.62;65.62;101346.41;5042195;28;20032;-41
2023/05/13 02:32:22;;;;;;;13.40;4.18;;;;;;;16.70;66.31;101336.28;5032929;28;20025;-42
2023/05/13 02:34:48;;;;;;;12.30;4.22;;;;;;;16.43;67.39;101333.22;5034555;28;20036;-41
2023/05/13 02:37:14;;;;;;;15.48;4.68;;;;;;;16.03;68.97;101348.16;5032215;28;20478;-42
2023/05/13 02:39:40;;;;;;;13.80;4.80;;;;;;;15.86;69.51;101336.34;5032243;28;20057;-41
2023/05/13 02:42:07;;;;;;;12.88;4.07;;;;;;;15.87;68.89;101339.88;5037583;28;20108;-40
2023/05/13 02:44:33;;;;;;;13.80;3.95;;;;;;;15.57;69.77;101343.34;5052317;28;20036;-41
2023/05/13 02:46:59;;;;;;;9.25;3.67;;;;;;;15.30;71.02;101340.13;5052367;28;20381;-42
2023/05/13 02:49:25;;;;;;;19.27;5.68;;;;;;;14.96;72.32;101336.97;5035950;28;20029;-41
2023/05/13 02:51:52;;;;;;;14.60;5.50;;;;;;;14.88;73.01;101342.66;5032606;28;20167;-41
2023/05/13 02:54:18;;;;;;;13.00;5.10;;;;;;;14.73;73.97;101331.41;5049729;28;20013;-42
2023/05/13 02:56:44;;;;;;;15.25;5.10;;;;;;;14.78;73.96;101340.47;5051218;28;20056;-41
2023/05/13 02:59:10;;;;;;;14.65;4.35;;;;;;;14.60;74.68;101344.97;5044093;28;20033;-42
2023/05/13 03:01:37;;;;;;;17.90;5.97;;;;;;;14.56;74.67;101341.91;5048592;28;20020;-42
2023/05/13 03:04:03;;;;;;;16.38;5.30;;;;;;;14.43;75.74;101353.56;5051301;28;20059;-41
2023/05/13 03:06:30;;;;;;;16.40;5.55;;;;;;;14.30;76.18;101347.47;5051932;28;20078;-42
2023/05/13 03:08:56;;;;;;;23.27;5.07;;;;;;;14.25;76.29;101346.25;5045918;28;20035;-42
2023/05/13 03:11:23;;;;;;;19.15;5.10;;;;;;;14.17;76.73;101353.78;5050594;28;20036;-44
2023/05/13 03:13:49;;;;;;;16.35;5.13;;;;;;;14.06;77.55;101351.78;5043857;28;20017;-43
2023/05/13 03:16:15;;;;;;;24.02;6.10;;;;;;;14.06;77.69;101352.59;5031402;28;20037;-42
2023/05/13 03:18:41;;;;;;;17.52;5.53;;;;;;;13.97;77.82;101354.72;5035796;28;20024;-42
2023/05/13 03:21:07;;;;;;;13.82;5.20;;;;;;;13.94;78.10;101357.84;5051657;28;20400;-42
2023/05/13 03:23:34;;;;;;;13.13;5.28;;;;;;;13.91;78.32;101357.44;5050608;28;20025;-42
2023/05/13 03:26:01;;;;;;;20.73;5.80;;;;;;;13.87;78.51;101359.72;5050078;28;20492;-42
2023/05/13 03:28:27;;;;;;;23.90;5.55;;;;;;;13.74;79.53;101360.63;5049942;28;20040;-41
2023/05/13 03:30:53;;;;;;;16.30;5.60;;;;;;;13.65;79.79;101367.28;5035768;28;20112;-43
2023/05/13 03:33:19;;;;;;;21.65;5.88;;;;;;;13.69;79.86;101367.69;5042188;28;20052;-41
2023/05/13 03:35:47;;;;;;;15.70;5.75;;;;;;;13.48;80.82;101372.31;5031576;28;20028;-42
2023/05/13 03:38:14;;;;;;;19.50;5.82;;;;;;;13.56;80.18;101367.75;5033830;28;20042;-42
2023/05/13 03:40:40;;;;;;;22.75;5.80;;;;;;;13.65;79.89;101366.44;5051326;28;20213;-42
2023/05/13 03:43:06;;;;;;;19.77;5.93;;;;;;;13.56;80.23;101367.75;5051762;28;20032;-42
2023/05/13 03:45:32;;;;;;;23.50;5.97;;;;;;;13.51;80.76;101371.06;5034227;28;20021;-42
2023/05/13 03:47:58;;;;;;;19.67;5.70;;;;;;;13.43;81.28;101373.97;5031092;28;20130;-42
2023/05/13 03:50:25;;;;;;;16.60;5.57;;;;;;;13.42;81.48;101377.72;5035379;28;20029;-41
2023/05/13 03:52:51;;;;;;;21.13;5.70;;;;;;;13.45;81.15;101375.44;5051369;28;20032;-41
2023/05/13 03:55:17;;;;;;;17.70;5.80;;;;;;;13.38;81.62;101384.53;5051206;28;20033;-42
2023/05/13 03:57:48;;;;;;;19.45;5.72;;;;;;;13.41;81.60;101378.75;5016162;28;20401;-42
2023/05/13 04:00:15;;;;;;;19.95;6.53;;;;;;;13.34;81.78;101386.84;5032520;28;20033;-41
2023/05/13 04:02:41;;;;;;;25.88;6.05;;;;;;;13.34;82.14;101384.16;5050815;28;20025;-41
2023/05/13 04:05:08;;;;;;;20.27;5.93;;;;;;;13.22;82.75;101385.03;5035216;28;20028;-41
2023/05/13 04:07:34;;;;;;;27.52;7.07;;;;;;;13.15;83.39;101379.59;5030889;28;20030;-40
2023/05/13 04:10:00;;;;;;;17.52;5.93;;;;;;;13.26;82.82;101383.53;5031223;28;20061;-40
2023/05/13 04:12:27;;;;;;;21.50;6.00;;;;;;;13.19;82.78;101384.34;5031392;28;20379;-40
2023/05/13 04:14:53;;;;;;;14.82;5.68;;;;;;;13.10;83.44;101380.25;5032189;28;20032;-42
2023/05/13 04:17:19;;;;;;;19.73;6.30;;;;;;;12.99;84.19;101382.72;5047759;28;20207;-40
2023/05/13 04:19:45;;;;;;;23.55;6.55;;;;;;;13.10;83.52;101385.63;5054799;28;20041;-40
2023/05/13 04:22:12;;;;;;;22.15;6.53;;;;;;;13.02;84.05;101383.16;5054490;28;20559;-40
2023/05/13 04:24:38;;;;;;;21.38;5.93;;;;;;;12.89;84.74;101384.00;5048431;28;20095;-40
2023/05/13 04:27:04;;;;;;;25.25;6.45;;;;;;;13.05;84.00;101390.81;5034065;28;20026;-41
2023/05/13 04:29:30;;;;;;;23.70;6.60;;;;;;;13.05;84.19;101384.59;5048662;28;20186;-40
2023/05/13 04:31:57;;;;;;;21.48;6.43;;;;;;;12.85;85.14;101380.06;5039881;28;20481;-40
2023/05/13 04:34:23;;;;;;;19.52;6.05;;;;;;;12.87;85.30;101386.03;5068811;28;20101;-41
2023/05/13 04:36:49;;;;;;;20.23;5.90;;;;;;;12.87;84.89;101380.66;5054217;28;20114;-40
2023/05/13 04:39:15;;;;;;;19.52;6.55;;;;;;;12.88;84.88;101386.88;5045897;28;20020;-41
2023/05/13 04:41:42;;;;;;;22.90;5.90;;;;;;;12.90;85.01;101385.63;5034523;28;20067;-41
2023/05/13 04:44:08;;;;;;;16.10;5.85;;;;;;;12.82;85.73;101390.38;5034330;28;20026;-41
2023/05/13 04:46:36;;;;;;;20.70;6.32;;;;;;;12.72;86.10;101393.50;5034319;28;20079;-41
2023/05/13 04:49:03;;;;;;;18.38;6.40;;;;;;;12.75;86.08;101397.63;5035244;28;20245;-42
2023/05/13 04:51:29;;;;;;;20.90;6.72;;;;;;;12.77;85.99;101391.03;5036006;28;20029;-41
2023/05/13 04:53:55;;;;;;;23.27;7.05;;;;;;;12.73;86.28;101388.97;5038577;28;20026;-42
2023/05/13 04:56:22;;;;;;;24.20;7.07;;;;;;;12.52;87.94;101392.66;5033999;28;20053;-40
2023/05/13 04:58:48;;;;;;;19.15;6.70;;;;;;;12.65;87.34;101387.28;5038255;28;20486;-39
2023/05/13 05:01:14;;;;;;;28.67;6.85;;;;;;;12.76;87.11;101392.03;5051910;28;20039;-41
2023/05/13 05:03:40;;;;;;;17.35;6.72;;;;;;;12.72;87.14;101388.13;5054219;28;20040;-41
2023/05/13 05:06:07;;;;;;;21.17;6.78;;;;;;;12.76;86.67;101392.03;5053703;28;20106;-39
2023/05/13 05:08:33;;;;;;;17.45;6.03;;;;;;;12.82;86.24;101385.84;5047302;28;20048;-42
2023/05/13 05:11:00;;;;;;;22.48;6.35;;;;;;;12.75;86.51;101392.25;5059377;28;20060;-41
2023/05/13 05:13:26;;;;;;;24.83;7.57;;;;;;;12.69;86.65;101383.16;5054507;28;20122;-43
2023/05/13 05:15:53;;;;;;;25.00;6.30;;;;;;;12.75;86.52;101387.72;5054078;28;20092;-42
2023/05/13 05:18:19;;;;;;;19.38;6.10;;;;;;;12.82;85.76;101380.47;5053901;28;20099;-42
2023/05/13 05:20:45;;;;;;;25.38;6.88;;;;;;;12.67;86.54;101383.38;5050016;28;20028;-41
2023/05/13 05:23:11;;;;;;;28.98;7.97;;;;;;;12.56;87.27;101377.81;5053619;28;20389;-42
2023/05/13 05:25:38;;;;;;;20.98;6.63;;;;;;;12.71;86.71;101381.09;5052817;28;20086;-42
2023/05/13 05:28:04;;;;;;;19.33;6.18;;;;;;;12.68;86.66;101374.28;5050130;28;20071;-40
2023/05/13 05:30:38;;;;;;;20.75;6.35;;;;;;;12.75;85.97;101374.28;5052897;28;20500;-43
2023/05/13 05:33:08;;;;;;;16.48;5.45;;;;;;;12.76;85.94;101370.56;5053431;28;20067;-41
2023/05/13 05:35:37;;;;;;;23.92;6.35;;;;;;;12.67;86.82;101369.13;5053480;28;20024;-42
2023/05/13 05:38:04;;;;;;;17.55;6.88;;;;;;;12.69;86.75;101361.69;5053148;28;20021;-39
2023/05/13 05:40:32;;;;;;;24.20;6.90;;;;;;;12.65;87.10;101360.44;5053341;28;20057;-40
2023/05/13 05:42:58;;;;;;;23.00;6.82;;;;;;;12.68;87.15;101373.47;5053082;28;20104;-41
2023/05/13 05:45:24;;;;;;;25.80;7.10;;;;;;;12.64;87.55;101366.84;5051455;28;20112;-41
2023/05/13 05:47:52;;;;;;;17.98;7.35;;;;;;;12.82;86.21;101376.94;5053143;28;20485;-40
2023/05/13 05:50:19;;;;;;;19.17;5.82;;;;;;;12.71;86.39;101378.41;5053263;28;20043;-43
2023/05/13 05:52:45;;;;;;;19.65;6.18;;;;;;;12.76;86.13;101378.59;5053389;28;20378;-40
2023/05/13 05:55:11;;;;;;;23.85;7.07;;;;;;;12.82;85.77;101371.59;5049640;28;20039;-42
2023/05/13 05:57:37;;;;;;;23.80;6.53;;;;;;;12.93;85.44;101373.63;5042510;28;20025;-40
2023/05/13 06:00:04;;;;;;;17.52;6.68;;;;;;;12.87;86.07;101375.28;5041208;28;20527;-41
2023/05/13 06:02:32;;;;;;;22.17;7.47;;;;;;;12.70;86.96;101368.69;5035088;28;20064;-40
2023/05/13 06:04:59;;;;;;;17.90;5.78;;;;;;;12.85;85.97;101366.63;5032976;28;20048;-41
2023/05/13 06:07:25;;;;;;;22.75;6.97;;;;;;;12.83;86.63;101359.81;5032654;28;20540;-41
2023/05/13 06:09:51;;;;;;;21.38;7.15;;;;;;;12.79;86.57;101367.47;5050866;28;20072;-41
2023/05/13 06:12:17;;;;;;;16.33;6.25;;;;;;;12.85;86.40;101361.25;5052774;28;20028;-41
2023/05/13 06:14:44;;;;;;;26.10;6.85;;;;;;;12.75;87.22;101360.03;5035318;28;20417;-41
2023/05/13 06:17:13;;;;;;;19.17;6.30;;;;;;;12.90;86.33;101361.47;5040799;28;20099;-42
2023/05/13 06:19:42;;;;;;;23.40;6.85;;;;;;;12.87;86.55;101359.19;5039234;28;20045;-42
2023/05/13 06:22:10;;;;;;;22.58;7.10;;;;;;;12.78;87.05;101356.94;5033102;28;20552;-42
2023/05/13 06:24:37;;;;;;;17.20;6.85;;;;;;;12.84;86.94;101358.78;5034659;28;20028;-42
2023/05/13 06:27:04;;;;;;;21.45;6.55;;;;;;;12.90;86.79;101358.78;5034122;28;20021;-42
2023/05/13 06:29:31;;;;;;;14.88;5.85;;;;;;;12.87;86.97;101353.81;5040490;28;20037;-42
2023/05/13 06:31:57;;;;;;;22.88;6.80;;;;;;;12.86;87.06;101354.84;5051598;28;20025;-40
2023/05/13 06:34:23;;;;;;;20.88;5.95;;;;;;;12.85;87.55;101350.50;5035979;28;20474;-41
2023/05/13 06:36:49;;;;;;;18.65;6.80;;;;;;;12.78;87.54;101356.94;5032096;28;20057;-41
2023/05/13 06:39:15;;;;;;;17.25;6.90;;;;;;;12.89;86.25;101359.81;5032313;28;20394;-40
2023/05/13 06:41:42;;;;;;;24.77;7.88;;;;;;;12.86;86.70;101351.34;5032094;28;20051;-42
2023/05/13 06:44:09;;;;;;;14.23;6.63;;;;;;;12.91;86.74;101357.72;5051084;28;20039;-42
2023/05/13 06:46:35;;;;;;;21.88;6.57;;;;;;;12.91;86.87;101357.72;5035324;28;20030;-42
2023/05/13 06:49:01;;;;;;;21.05;7.30;;;;;;;12.68;87.64;101351.97;5032215;28;20017;-43
2023/05/13 06:51:27;;;;;;;28.63;8.00;;;;;;;12.80;87.15;101347.63;5033166;28;20051;-41
2023/05/13 06:53:54;;;;;;;22.80;6.90;;;;;;;12.81;87.37;101348.44;5032225;28;20077;-40
2023/05/13 06:56:24;;;;;;;19.90;7.05;;;;;;;12.81;87.56;101346.56;5032001;28;20464;-42
2023/05/13 06:58:51;;;;;;;18.10;7.97;;;;;;;12.76;88.10;101353.59;5049935;28;20029;-43
2023/05/13 07:01:18;;;;;;;22.60;8.10;;;;;;;12.82;87.54;101356.28;5039549;28;20040;-40
2023/05/13 07:03:44;;;;;;;18.20;7.20;;;;;;;12.79;87.44;101345.97;5032156;28;20029;-42
2023/05/13 07:06:11;;;;;;;23.17;7.93;;;;;;;12.88;87.07;101342.03;5031914;28;20033;-41
2023/05/13 07:08:39;;;;;;;22.42;7.38;;;;;;;12.77;87.42;101336.47;5042289;28;20028;-42
2023/05/13 07:11:05;;;;;;;17.95;6.90;;;;;;;12.85;87.38;101334.38;5051053;28;20043;-42
2023/05/13 07:13:33;;;;;;;27.15;8.02;;;;;;;12.82;87.20;101328.59;5050678;28;20048;-42
2023/05/13 07:16:03;;;;;;;23.13;8.20;;;;;;;12.85;87.11;101334.38;5051523;28;20053;-41
2023/05/13 07:18:29;;;;;;;24.25;6.82;;;;;;;12.70;88.06;101331.09;5051599;28;20025;-40
2023/05/13 07:20:56;;;;;;;21.05;7.13;;;;;;;12.75;87.91;101331.31;5049995;28;20029;-42
2023/05/13 07:23:23;;;;;;;22.33;7.65;;;;;;;12.64;88.36;101322.00;5031577;28;20033;-42
2023/05/13 07:25:51;;;;;;;18.23;6.88;;;;;;;12.76;87.84;101326.75;5031735;28;20037;-42
2023/05/13 07:28:20;;;;;;;23.02;6.97;;;;;;;12.78;87.81;101328.22;5031825;28;20533;-40
2023/05/13 07:30:46;;;;;;;22.98;7.75;;;;;;;12.77;87.79;101328.41;5043150;28;20044;-42
2023/05/13 07:33:13;;;;;;;22.75;8.75;;;;;;;12.73;88.09;101329.88;5042906;28;20036;-40
2023/05/13 07:35:39;;;;;;;19.85;7.78;;;;;;;12.69;88.31;101324.06;5051766;28;20477;-42
2023/05/13 07:38:08;;;;;;;21.58;7.75;;;;;;;12.74;88.32;101326.97;5051144;28;20213;-41
2023/05/13 07:40:35;;;;;;;20.08;8.43;;;;;;;12.64;89.15;101329.25;5051293;28;20045;-41
2023/05/13 07:43:01;;;;;;;24.30;8.63;;;;;;;12.77;88.73;101325.72;5050892;28;20453;-41
2023/05/13 07:45:28;;;;;;;20.80;8.15;;;;;;;12.74;88.50;101321.59;5050727;28;20163;-42
2023/05/13 07:47:55;;;;;;;22.25;8.27;;;;;;;12.60;90.08;101322.63;5050145;28;20469;-41
2023/05/13 07:50:21;;;;;;;23.33;8.10;;;;;;;12.56;90.06;101319.53;5053521;28;20140;-42
2023/05/13 07:52:48;;;;;;;21.40;8.30;;;;;;;12.61;89.88;101327.00;5048577;28;20457;-42
2023/05/13 07:55:15;;;;;;;27.73;9.00;;;;;;;12.67;89.70;101320.78;5035670;28;20029;-42
2023/05/13 07:57:41;;;;;;;22.95;7.82;;;;;;;12.65;89.66;101320.16;5035296;28;20470;-42
2023/05/13 08:00:08;;;;;;;21.83;8.20;;;;;;;12.76;89.05;101314.13;5036034;28;20057;-42
2023/05/13 08:02:38;;;;;;;18.70;8.10;;;;;;;12.73;88.89;101314.56;5038577;28;20032;-42
2023/05/13 08:05:05;;;;;;;21.80;7.05;;;;;;;12.63;88.84;101309.63;5051064;28;20051;-42
2023/05/13 08:07:31;;;;;;;19.52;7.07;;;;;;;12.72;89.21;101321.00;5055156;28;20489;-42
2023/05/13 08:09:58;;;;;;;21.65;8.63;;;;;;;12.65;88.99;101312.09;5054943;28;20025;-42
2023/05/13 08:12:24;;;;;;;20.58;7.45;;;;;;;12.53;89.82;101305.69;5055091;28;20025;-42
2023/05/13 08:14:50;;;;;;;28.58;8.25;;;;;;;12.67;89.15;101304.66;5054355;28;20504;-42
2023/05/13 08:17:18;;;;;;;24.20;8.95;;;;;;;12.60;89.59;101303.81;5054824;28;20029;-42
2023/05/13 08:19:45;;;;;;;18.85;7.47;;;;;;;12.60;89.87;101299.31;5055234;28;20041;-42
2023/05/13 08:22:11;;;;;;;21.88;8.23;;;;;;;12.68;89.02;101293.72;5053896;28;20067;-42
2023/05/13 08:24:39;;;;;;;20.05;8.07;;;;;;;12.65;89.16;101285.22;5042784;28;20029;-42
2023/05/13 08:27:06;;;;;;;29.48;7.60;;;;;;;12.71;89.11;101287.09;5034752;28;20036;-42
2023/05/13 08:29:32;;;;;;;26.02;8.07;;;;;;;12.54;90.43;101285.88;5034688;28;20371;-41
2023/05/13 08:31:58;;;;;;;25.08;8.05;;;;;;;12.50;90.71;101282.78;5034680;28;20104;-41
2023/05/13 08:34:24;;;;;;;20.48;7.55;;;;;;;12.48;90.72;101284.00;5040925;28;20020;-42
2023/05/13 08:36:50;;;;;;;19.85;7.53;;;;;;;12.56;89.88;101275.75;5047534;28;20084;-42
2023/05/13 08:39:17;;;;;;;17.73;6.90;;;;;;;12.58;89.81;101273.69;5048820;28;20105;-42
2023/05/13 08:41:45;;;;;;;18.73;8.35;;;;;;;12.52;89.41;101275.34;5053311;28;20068;-42
2023/05/13 08:44:14;;;;;;;19.05;8.95;;;;;;;12.59;89.15;101273.47;5035842;28;20024;-42
2023/05/13 08:46:48;;;;;;;23.52;7.18;;;;;;;12.60;89.17;101269.78;5034379;28;20517;-42
2023/05/13 08:49:15;;;;;;;19.77;7.38;;;;;;;12.48;89.38;101267.91;5035428;28;20062;-41
2023/05/13 08:51:43;;;;;;;16.30;6.63;;;;;;;12.51;89.31;101272.88;5034801;28;20551;-42
2023/05/13 08:54:10;;;;;;;14.10;6.43;;;;;;;12.43;89.10;101263.97;5037480;28;20024;-42
2023/05/13 08:56:36;;;;;;;15.85;5.78;;;;;;;12.49;89.28;101262.31;5035641;28;20121;-42
2023/05/13 08:59:03;;;;;;;21.65;6.97;;;;;;;12.56;88.73;101265.03;5034538;28;20371;-42
2023/05/13 09:01:30;;;;;;;16.50;7.00;;;;;;;12.47;89.42;101260.88;5033966;28;20033;-43
2023/05/13 09:04:00;;;;;;;25.60;8.27;;;;;;;12.45;90.41;101258.41;5037160;28;20032;-42
2023/05/13 09:06:27;;;;;;;20.25;8.15;;;;;;;12.40;90.59;101260.91;5046542;28;20025;-42
2023/05/13 09:08:55;;;;;;;19.13;7.47;;;;;;;12.46;90.46;101254.69;5053900;28;20029;-41
2023/05/13 09:11:22;;;;;;;25.55;8.65;;;;;;;12.39;90.97;101246.66;5036510;28;20060;-42
2023/05/13 09:13:59;;;;;;;21.35;8.20;;;;;;;12.42;90.68;101250.78;5042277;28;20033;-41
2023/05/13 09:16:27;;;;;;;20.10;7.85;;;;;;;12.51;90.00;101254.91;5042990;28;20048;-41
2023/05/13 09:19:04;;;;;;;18.33;7.13;;;;;;;12.34;90.63;101257.19;5037899;28;20076;-41
2023/05/13 09:21:32;;;;;;;17.80;7.82;;;;;;;12.51;89.78;101259.44;5046601;28;20052;-44
2023/05/13 09:24:12;;;;;;;12.02;6.45;;;;;;;12.60;89.52;101261.72;5053570;28;20039;-42
2023/05/13 09:26:39;;;;;;;23.77;7.75;;;;;;;12.48;89.82;101262.53;5052813;28;20043;-42
2023/05/13 09:29:22;;;;;;;22.35;8.25;;;;;;;12.59;89.59;101268.09;5053682;28;20029;-42
2023/05/13 09:31:59;;;;;;;17.05;7.53;;;;;;;12.59;89.50;101260.03;5033665;28;20033;-42
2023/05/13 09:34:32;;;;;;;17.83;8.10;;;;;;;12.63;89.23;101257.78;5042216;23;20029;-42
2023/05/13 09:37:06;;;;;;;21.65;7.78;;;;;;;12.41;89.94;101258.00;5032179;28;20406;-42
2023/05/13 09:39:38;;;;;;;14.65;6.95;;;;;;;12.46;90.18;101257.38;5033022;28;20040;-42
2023/05/13 09:42:05;;;;;;;15.07;7.05;;;;;;;12.44;90.84;101256.78;5033547;28;20063;-42
2023/05/13 09:44:32;;;;;;;16.15;8.30;;;;;;;12.52;90.26;101256.53;5033681;28;20108;-42
2023/05/13 09:47:01;;;;;;;17.67;8.20;;;;;;;12.38;90.76;101242.31;5032208;28;20025;-39
2023/05/13 09:49:27;;;;;;;23.35;8.43;;;;;;;12.42;90.46;101240.84;5033191;28;20052;-39
2023/05/13 09:51:53;;;;;;;19.88;7.40;;;;;;;12.46;90.47;101237.75;5032720;28;20025;-39
2023/05/13 09:54:19;;;;;;;19.65;8.95;;;;;;;12.46;90.02;101237.75;5033313;28;20018;-40
2023/05/13 09:56:46;;;;;;;24.08;10.02;;;;;;;12.42;90.11;101242.72;5033030;28;20021;-40
2023/05/13 09:59:14;;;;;;;20.90;8.93;;;;;;;12.47;89.71;101240.22;5032606;28;20116;-40
2023/05/13 10:01:41;;;;;;;23.10;8.70;;;;;;;12.47;89.66;101240.22;5033266;28;20029;-39
2023/05/13 10:04:08;;;;;;;19.15;9.32;;;;;;;12.40;90.28;101245.63;5031734;28;20112;-39
2023/05/13 10:06:36;;;;;;;21.83;8.32;;;;;;;12.46;90.12;101245.81;5032755;28;20057;-39
2023/05/13 10:09:05;;;;;;;18.35;8.60;;;;;;;12.46;90.06;101248.50;5029697;28;20111;-39
2023/05/13 10:11:35;;;;;;;18.15;8.90;;;;;;;12.53;89.55;101239.41;5032906;28;20474;-40
2023/05/13 10:14:05;;;;;;;12.85;7.55;;;;;;;12.55;89.03;101244.56;5032637;28;20548;-40
2023/05/13 10:16:32;;;;;;;20.02;8.70;;;;;;;12.39;90.18;101241.28;5032910;28;20112;-40
2023/05/13 10:18:59;;;;;;;22.30;9.70;;;;;;;12.39;90.26;101237.78;5032800;28;20036;-40
2023/05/13 10:21:26;;;;;;;16.10;8.38;;;;;;;12.57;89.54;101242.50;5032001;28;20351;-40
2023/05/13 10:23:53;;;;;;;11.73;6.70;;;;;;;12.61;88.63;101241.06;5023059;28;20125;-40
2023/05/13 10:26:23;;;;;;;15.68;6.40;;;;;;;12.33;89.85;101238.63;5012602;28;20022;-40
2023/05/13 10:28:49;;;;;;;13.10;6.32;;;;;;;12.39;89.93;101238.59;5013069;28;20387;-40
2023/05/13 10:31:16;;;;;;;15.73;7.18;;;;;;;12.42;89.75;101230.13;5012574;28;20088;-40
2023/05/13 10:33:44;;;;;;;11.57;6.88;;;;;;;12.42;89.92;101237.34;5012748;28;20538;-41
2023/05/13 10:36:22;;;;;;;15.85;6.82;;;;;;;12.34;89.94;101233.03;5011899;28;20085;-40
2023/05/13 10:39:25;;;;;;;20.15;6.55;;;;;;;12.41;89.11;101231.16;5012878;28;20022;-40
2023/05/13 10:42:21;;;;;;;12.07;7.03;;;;;;;12.14;90.05;101230.34;5026724;28;20048;-40
2023/05/13 10:44:54;;;;;;;12.57;6.90;;;;;;;12.17;90.66;101223.75;5027990;28;20040;-40
2023/05/13 10:47:20;;;;;;;10.57;6.22;;;;;;;12.24;90.08;101224.56;4993528;28;20057;-40
2023/05/13 10:49:53;;;;;;;12.65;6.50;;;;;;;12.28;89.63;101225.00;4975756;28;20053;-40
2023/05/13 10:52:20;;;;;;;10.13;6.22;;;;;;;12.15;90.25;101220.44;5001923;28;20036;-40
2023/05/13 10:55:01;;;;;;;8.70;5.45;;;;;;;12.23;90.03;101222.91;5032354;28;20029;-40
2023/05/13 10:57:37;;;;;;;11.88;5.90;;;;;;;12.20;89.92;101228.69;5019305;28;20108;-40
2023/05/13 11:00:18;;;;;;;10.88;5.90;;;;;;;12.09;90.54;101221.25;5010472;28;21045;-40
2023/05/13 11:02:44;;;;;;;9.48;6.20;;;;;;;12.10;90.76;101218.41;5012845;28;20061;-40
2023/05/13 11:05:22;;;;;;;10.05;6.03;;;;;;;12.04;91.19;101224.56;4998068;28;20022;-40
2023/05/13 11:07:56;;;;;;;11.90;6.32;;;;;;;12.02;90.97;101233.84;5003888;28;20030;-40
2023/05/13 11:10:30;;;;;;;13.15;6.28;;;;;;;12.05;91.08;101234.28;5011981;28;20041;-40
2023/05/13 11:13:14;;;;;;;8.05;5.50;;;;;;;12.14;90.07;101229.53;5014369;28;20062;-40
2023/05/13 11:15:51;;;;;;;12.25;6.40;;;;;;;12.00;90.92;101238.63;5029098;28;20482;-41
2023/05/13 11:18:19;;;;;;;9.10;4.93;;;;;;;11.88;91.38;101231.19;5009191;28;20029;-40
2023/05/13 11:20:52;;;;;;;9.00;4.93;;;;;;;12.02;90.73;101229.31;5011791;28;20364;-40